createdAt,value
2023-04-11T00:00:56.856Z,24.34
2023-04-11T00:01:56.848Z,24.35
2023-04-11T00:02:56.948Z,24.34
2023-04-11T00:03:56.912Z,24.34
2023-04-11T00:04:56.816Z,24.34
2023-04-11T00:05:56.809Z,24.35
2023-04-11T00:06:56.788Z,24.35
2023-04-11T00:07:56.736Z,24.35
2023-04-11T00:08:57.127Z,24.35
2023-04-11T00:09:56.709Z,24.34
2023-04-11T00:10:56.719Z,24.35
2023-04-11T00:11:56.695Z,24.34
2023-04-11T00:12:56.890Z,24.35
2023-04-11T00:13:56.701Z,24.34
2023-04-11T00:14:56.672Z,24.34
2023-04-11T00:15:56.790Z,24.34
2023-04-11T00:16:56.832Z,24.34
2023-04-11T00:17:56.810Z,24.35
2023-04-11T00:18:56.938Z,24.34
2023-04-11T00:19:56.824Z,24.34
2023-04-11T00:20:56.856Z,24.34
2023-04-11T00:21:56.865Z,24.34
2023-04-11T00:22:56.860Z,24.34
2023-04-11T00:23:56.926Z,24.34
2023-04-11T00:24:57.414Z,24.34
2023-04-11T00:25:56.938Z,24.34
2023-04-11T00:26:56.942Z,24.34
2023-04-11T00:27:56.960Z,24.34
2023-04-11T00:28:57.088Z,24.33
2023-04-11T00:29:57.012Z,24.34
2023-04-11T00:30:57.018Z,24.34
2023-04-11T00:31:57.082Z,24.33
2023-04-11T00:32:57.151Z,24.33
2023-04-11T00:33:57.119Z,24.33
2023-04-11T00:34:57.139Z,24.34
2023-04-11T00:35:57.211Z,24.33
2023-04-11T00:36:57.262Z,24.33
2023-04-11T00:37:57.202Z,24.33
2023-04-11T00:38:57.458Z,24.33
2023-04-11T00:39:57.257Z,24.33
2023-04-11T00:40:57.352Z,24.33
2023-04-11T00:41:57.328Z,24.32
2023-04-11T00:42:57.333Z,24.33
2023-04-11T00:43:57.355Z,24.33
2023-04-11T00:44:57.385Z,24.32
2023-04-11T00:45:57.467Z,24.33
2023-04-11T00:46:57.422Z,24.33
2023-04-11T00:47:57.543Z,24.33
2023-04-11T00:48:57.832Z,24.33
2023-04-11T00:49:57.486Z,24.33
2023-04-11T00:50:57.624Z,24.33
2023-04-11T00:51:57.613Z,24.33
2023-04-11T00:52:57.547Z,24.34
2023-04-11T00:53:57.677Z,24.32
2023-04-11T00:54:57.574Z,24.33
2023-04-11T00:55:57.641Z,24.33
2023-04-11T00:56:57.644Z,24.33
2023-04-11T00:57:57.630Z,24.33
2023-04-11T00:58:57.731Z,24.33
2023-04-11T00:59:57.673Z,24.33
2023-04-11T01:00:57.771Z,24.32
2023-04-11T01:01:57.906Z,24.33
2023-04-11T01:02:57.876Z,24.32
2023-04-11T01:03:57.875Z,24.32
2023-04-11T01:04:57.805Z,24.32
2023-04-11T01:05:57.801Z,24.32
2023-04-11T01:06:57.830Z,24.32
2023-04-11T01:07:57.856Z,24.31
2023-04-11T01:08:58.038Z,24.32
2023-04-11T01:09:57.973Z,24.32
2023-04-11T01:10:57.971Z,24.32
2023-04-11T01:11:57.984Z,24.32
2023-04-11T01:12:57.970Z,24.31
2023-04-11T01:13:58.018Z,24.31
2023-04-11T01:14:58.009Z,24.32
2023-04-11T01:15:58.044Z,24.32
2023-04-11T01:16:58.138Z,24.32
2023-04-11T01:17:58.163Z,24.32
2023-04-11T01:18:58.132Z,24.32
2023-04-11T01:19:58.148Z,24.31
2023-04-11T01:20:58.206Z,24.31
2023-04-11T01:21:58.198Z,24.32
2023-04-11T01:22:58.206Z,24.31
2023-04-11T01:23:58.268Z,24.32
2023-04-11T01:24:58.274Z,24.31
2023-04-11T01:25:58.316Z,24.31
2023-04-11T01:26:58.370Z,24.32
2023-04-11T01:27:58.342Z,24.31
2023-04-11T01:28:58.353Z,24.31
2023-04-11T01:29:58.407Z,24.31
2023-04-11T01:30:58.453Z,24.31
2023-04-11T01:31:58.479Z,24.31
2023-04-11T01:32:58.476Z,24.31
2023-04-11T01:33:58.477Z,24.31
2023-04-11T01:34:58.480Z,24.31
2023-04-11T01:35:58.551Z,24.31
2023-04-11T01:36:58.549Z,24.31
2023-04-11T01:37:58.580Z,24.31
2023-04-11T01:38:58.618Z,24.31
2023-04-11T01:39:58.608Z,24.31
2023-04-11T01:40:58.647Z,24.31
2023-04-11T01:41:58.681Z,24.31
2023-04-11T01:42:58.695Z,24.31
2023-04-11T01:43:58.715Z,24.30
2023-04-11T01:44:58.734Z,24.31
2023-04-11T01:45:58.740Z,24.31
2023-04-11T01:46:58.771Z,24.30
2023-04-11T01:47:58.906Z,24.31
2023-04-11T01:48:58.925Z,24.31
2023-04-11T01:49:58.837Z,24.31
2023-04-11T01:50:58.856Z,24.31
2023-04-11T01:51:58.877Z,24.31
2023-04-11T01:52:58.912Z,24.31
2023-04-11T01:53:58.936Z,24.31
2023-04-11T01:54:58.940Z,24.31
2023-04-11T01:55:58.985Z,24.31
2023-04-11T01:56:58.990Z,24.31
2023-04-11T01:57:59.018Z,24.30
2023-04-11T01:58:59.270Z,24.31
2023-04-11T01:59:59.088Z,24.31
2023-04-11T02:00:59.145Z,24.31
2023-04-11T02:01:59.395Z,24.31
2023-04-11T02:02:59.283Z,24.30
2023-04-11T02:03:59.385Z,24.30
2023-04-11T02:04:59.211Z,24.31
2023-04-11T02:05:59.227Z,24.30
2023-04-11T02:06:59.258Z,24.30
2023-04-11T02:07:59.279Z,24.30
2023-04-11T02:08:59.296Z,24.30
2023-04-11T02:09:59.335Z,24.31
2023-04-11T02:10:59.377Z,24.30
2023-04-11T02:11:59.393Z,24.30
2023-04-11T02:12:59.408Z,24.30
2023-04-11T02:13:59.440Z,24.30
2023-04-11T02:14:59.445Z,24.31
2023-04-11T02:15:59.545Z,24.30
2023-04-11T02:16:59.520Z,24.31
2023-04-11T02:17:59.556Z,24.30
2023-04-11T02:18:59.563Z,24.30
2023-04-11T02:19:59.596Z,24.30
2023-04-11T02:20:59.626Z,24.30
2023-04-11T02:21:59.636Z,24.30
2023-04-11T02:22:59.677Z,24.30
2023-04-11T02:24:00.767Z,24.30
2023-04-11T02:24:59.775Z,24.29
2023-04-11T02:25:59.726Z,24.29
2023-04-11T02:26:59.763Z,24.29
2023-04-11T02:27:59.780Z,24.30
2023-04-11T02:28:59.819Z,24.29
2023-04-11T02:29:59.847Z,24.29
2023-04-11T02:30:59.933Z,24.30
2023-04-11T02:32:00.014Z,24.30
2023-04-11T02:33:00.017Z,24.30
2023-04-11T02:33:59.934Z,24.30
2023-04-11T02:34:59.975Z,24.29
2023-04-11T02:35:59.987Z,24.30
2023-04-11T02:37:00.016Z,24.30
2023-04-11T02:38:00.039Z,24.29
2023-04-11T02:39:00.114Z,24.29
2023-04-11T02:40:00.154Z,24.30
2023-04-11T02:41:00.118Z,24.29
2023-04-11T02:42:00.117Z,24.30
2023-04-11T02:43:00.159Z,24.28
2023-04-11T02:44:00.958Z,24.29
2023-04-11T02:45:00.184Z,24.29
2023-04-11T02:46:11.649Z,24.29
2023-04-11T02:47:01.302Z,24.28
2023-04-11T02:48:00.289Z,24.29
2023-04-11T02:49:00.194Z,24.29
2023-04-11T02:50:00.192Z,24.29
2023-04-11T02:51:00.169Z,24.29
2023-04-11T02:52:00.154Z,24.29
2023-04-11T02:53:00.575Z,24.28
2023-04-11T02:54:00.179Z,24.29
2023-04-11T02:55:00.147Z,24.28
2023-04-11T02:56:00.135Z,24.29
2023-04-11T02:57:00.133Z,24.29
2023-04-11T02:58:00.132Z,24.28
2023-04-11T02:59:00.128Z,24.29
2023-04-11T03:00:00.163Z,24.29
2023-04-11T03:01:00.113Z,24.29
2023-04-11T03:02:00.177Z,24.29
2023-04-11T03:03:00.208Z,24.29
2023-04-11T03:04:00.184Z,24.28
2023-04-11T03:05:00.126Z,24.28
2023-04-11T03:06:00.141Z,24.28
2023-04-11T03:07:00.166Z,24.29
2023-04-11T03:08:00.148Z,24.29
2023-04-11T03:09:00.180Z,24.28
2023-04-11T03:10:00.191Z,24.29
2023-04-11T03:11:00.223Z,24.28
2023-04-11T03:12:00.229Z,24.28
2023-04-11T03:13:00.262Z,24.29
2023-04-11T03:14:00.490Z,24.29
2023-04-11T03:15:00.325Z,24.28
2023-04-11T03:16:00.411Z,24.28
2023-04-11T03:17:00.366Z,24.28
2023-04-11T03:18:00.425Z,24.28
2023-04-11T03:19:00.427Z,24.28
2023-04-11T03:20:00.435Z,24.28
2023-04-11T03:21:00.481Z,24.28
2023-04-11T03:22:00.498Z,24.28
2023-04-11T03:23:00.510Z,24.28
2023-04-11T03:24:00.554Z,24.28
2023-04-11T03:25:00.573Z,24.28
2023-04-11T03:26:00.608Z,24.28
2023-04-11T03:27:00.641Z,24.28
2023-04-11T03:28:00.666Z,24.28
2023-04-11T03:29:00.689Z,24.27
2023-04-11T03:30:00.718Z,24.28
2023-04-11T03:31:00.726Z,24.28
2023-04-11T03:32:00.734Z,24.28
2023-04-11T03:33:00.889Z,24.28
2023-04-11T03:34:00.806Z,24.28
2023-04-11T03:35:00.827Z,24.28
2023-04-11T03:36:00.897Z,24.28
2023-04-11T03:37:00.880Z,24.28
2023-04-11T03:38:00.899Z,24.27
2023-04-11T03:39:00.918Z,24.28
2023-04-11T03:40:00.961Z,24.28
2023-04-11T03:41:00.958Z,24.28
2023-04-11T03:42:00.986Z,24.28
2023-04-11T03:43:02.935Z,24.28
2023-04-11T03:44:01.076Z,24.28
2023-04-11T03:45:00.980Z,24.27
2023-04-11T03:46:00.980Z,24.27
2023-04-11T03:47:01.210Z,24.27
2023-04-11T03:48:01.018Z,24.28
2023-04-11T03:49:00.977Z,24.28
2023-04-11T03:50:00.996Z,24.28
2023-04-11T03:51:00.975Z,24.28
2023-04-11T03:52:00.958Z,24.27
2023-04-11T03:53:00.944Z,24.27
2023-04-11T03:54:00.948Z,24.27
2023-04-11T03:55:00.929Z,24.27
2023-04-11T03:56:00.908Z,24.27
2023-04-11T03:57:00.900Z,24.26
2023-04-11T03:58:00.918Z,24.27
2023-04-11T03:59:00.911Z,24.27
2023-04-11T04:00:00.905Z,24.27
2023-04-11T04:01:00.882Z,24.28
2023-04-11T04:02:00.934Z,24.27
2023-04-11T04:03:01.036Z,24.27
2023-04-11T04:04:01.340Z,24.27
2023-04-11T04:05:00.879Z,24.27
2023-04-11T04:06:00.855Z,24.27
2023-04-11T04:07:00.847Z,24.27
2023-04-11T04:08:00.855Z,24.27
2023-04-11T04:09:00.810Z,24.28
2023-04-11T04:10:00.811Z,24.27
2023-04-11T04:11:00.808Z,24.27
2023-04-11T04:12:00.791Z,24.27
2023-04-11T04:13:00.801Z,24.27
2023-04-11T04:14:00.801Z,24.27
2023-04-11T04:15:00.782Z,24.27
2023-04-11T04:16:02.801Z,24.27
2023-04-11T04:17:00.829Z,24.27
2023-04-11T04:18:00.763Z,24.26
2023-04-11T04:19:00.757Z,24.26
2023-04-11T04:20:00.755Z,24.26
2023-04-11T04:21:00.737Z,24.27
2023-04-11T04:22:00.731Z,24.26
2023-04-11T04:23:00.738Z,24.27
2023-04-11T04:24:00.737Z,24.26
2023-04-11T04:25:00.733Z,24.27
2023-04-11T04:26:00.728Z,24.26
2023-04-11T04:27:00.741Z,24.26
2023-04-11T04:28:00.711Z,24.27
2023-04-11T04:29:00.717Z,24.27
2023-04-11T04:30:03.604Z,24.26
2023-04-11T04:31:00.689Z,24.27
2023-04-11T04:32:00.721Z,24.26
2023-04-11T04:33:00.740Z,24.26
2023-04-11T04:34:00.664Z,24.26
2023-04-11T04:35:00.672Z,24.26
2023-04-11T04:36:00.676Z,24.25
2023-04-11T04:37:00.647Z,24.26
2023-04-11T04:38:00.633Z,24.25
2023-04-11T04:39:00.622Z,24.25
2023-04-11T04:40:00.644Z,24.26
2023-04-11T04:41:00.626Z,24.26
2023-04-11T04:42:00.642Z,24.25
2023-04-11T04:43:00.667Z,24.25
2023-04-11T04:44:00.608Z,24.25
2023-04-11T04:45:00.619Z,24.26
2023-04-11T04:46:00.592Z,24.26
2023-04-11T04:47:00.574Z,24.25
2023-04-11T04:48:00.699Z,24.25
2023-04-11T04:49:02.311Z,24.26
2023-04-11T04:50:00.568Z,24.25
2023-04-11T04:51:00.546Z,24.25
2023-04-11T04:52:00.544Z,24.25
2023-04-11T04:53:00.524Z,24.25
2023-04-11T04:54:00.524Z,24.25
2023-04-11T04:55:00.710Z,24.25
2023-04-11T04:56:00.543Z,24.25
2023-04-11T04:57:00.525Z,24.25
2023-04-11T04:58:00.521Z,24.25
2023-04-11T04:59:00.513Z,24.25
2023-04-11T05:00:00.491Z,24.26
2023-04-11T05:01:00.545Z,24.25
2023-04-11T05:02:00.543Z,24.26
2023-04-11T05:03:00.775Z,24.26
2023-04-11T05:04:01.294Z,24.26
2023-04-11T05:05:00.585Z,24.26
2023-04-11T05:06:00.588Z,24.26
2023-04-11T05:07:00.624Z,24.26
2023-04-11T05:08:00.637Z,24.28
2023-04-11T05:09:00.672Z,24.29
2023-04-11T05:10:00.684Z,24.29
2023-04-11T05:11:00.744Z,24.26
2023-04-11T05:12:00.849Z,24.21
2023-04-11T05:13:00.806Z,24.16
2023-04-11T05:14:00.859Z,24.09
2023-04-11T05:15:00.931Z,24.02
2023-04-11T05:16:00.994Z,23.95
2023-04-11T05:17:01.096Z,23.89
2023-04-11T05:18:01.139Z,23.83
2023-04-11T05:19:01.027Z,23.78
2023-04-11T05:20:01.037Z,23.74
2023-04-11T05:21:01.055Z,23.69
2023-04-11T05:22:01.023Z,23.66
2023-04-11T05:23:01.109Z,23.63
2023-04-11T05:24:01.069Z,23.59
2023-04-11T05:25:01.092Z,23.56
2023-04-11T05:26:01.084Z,23.56
2023-04-11T05:27:01.143Z,23.57
2023-04-11T05:28:01.143Z,23.59
2023-04-11T05:29:01.571Z,23.61
2023-04-11T05:30:01.144Z,23.65
2023-04-11T05:31:01.254Z,23.67
2023-04-11T05:32:01.162Z,23.71
2023-04-11T05:33:01.302Z,23.77
2023-04-11T05:34:01.584Z,23.81
2023-04-11T05:35:01.385Z,23.84
2023-04-11T05:36:01.484Z,23.91
2023-04-11T05:37:01.482Z,23.96
2023-04-11T05:38:01.484Z,24.01
2023-04-11T05:39:01.550Z,24.05
2023-04-11T05:40:01.570Z,24.06
2023-04-11T05:41:01.689Z,24.09
2023-04-11T05:42:01.631Z,24.14
2023-04-11T05:43:01.660Z,24.20
2023-04-11T05:44:01.661Z,24.24
2023-04-11T05:45:01.711Z,24.27
2023-04-11T05:46:01.754Z,24.31
2023-04-11T05:47:02.559Z,24.34
2023-04-11T05:48:01.789Z,24.38
2023-04-11T05:49:01.890Z,24.42
2023-04-11T05:50:01.905Z,24.45
2023-04-11T05:51:01.827Z,24.48
2023-04-11T05:52:01.796Z,24.52
2023-04-11T05:53:01.933Z,24.56
2023-04-11T05:54:02.033Z,24.58
2023-04-11T05:55:02.100Z,24.62
2023-04-11T05:56:02.158Z,24.65
2023-04-11T05:57:02.207Z,24.69
2023-04-11T05:58:02.249Z,24.72
2023-04-11T05:59:02.305Z,24.74
2023-04-11T06:00:02.390Z,24.77
2023-04-11T06:01:02.400Z,24.80
2023-04-11T06:02:02.483Z,24.83
2023-04-11T06:03:02.685Z,24.85
2023-04-11T06:04:02.936Z,24.87
2023-04-11T06:05:02.662Z,24.89
2023-04-11T06:06:02.640Z,24.91
2023-04-11T06:07:02.714Z,24.93
2023-04-11T06:08:02.785Z,24.95
2023-04-11T06:09:02.788Z,24.96
2023-04-11T06:10:02.857Z,24.99
2023-04-11T06:11:02.908Z,25.00
2023-04-11T06:12:02.998Z,25.02
2023-04-11T06:13:03.024Z,25.04
2023-04-11T06:14:03.036Z,25.05
2023-04-11T06:15:03.096Z,25.07
2023-04-11T06:16:03.143Z,25.08
2023-04-11T06:17:03.163Z,25.09
2023-04-11T06:18:03.242Z,25.11
2023-04-11T06:19:03.242Z,25.12
2023-04-11T06:20:04.842Z,25.13
2023-04-11T06:21:03.281Z,25.15
2023-04-11T06:22:03.265Z,25.16
2023-04-11T06:23:03.282Z,25.17
2023-04-11T06:24:03.279Z,25.19
2023-04-11T06:25:03.592Z,25.19
2023-04-11T06:26:03.251Z,25.21
2023-04-11T06:27:03.296Z,25.22
2023-04-11T06:28:03.232Z,25.22
2023-04-11T06:29:03.221Z,25.24
2023-04-11T06:30:03.215Z,25.25
2023-04-11T06:31:03.218Z,25.26
2023-04-11T06:32:03.193Z,25.21
2023-04-11T06:33:03.303Z,25.17
2023-04-11T06:34:03.597Z,25.18
2023-04-11T06:35:03.180Z,25.20
2023-04-11T06:36:05.598Z,25.19
2023-04-11T06:37:03.200Z,25.19
2023-04-11T06:38:03.163Z,25.19
2023-04-11T06:39:03.565Z,25.11
2023-04-11T06:40:03.582Z,25.09
2023-04-11T06:41:03.112Z,25.08
2023-04-11T06:42:03.125Z,25.06
2023-04-11T06:43:03.115Z,25.05
2023-04-11T06:44:03.152Z,25.02
2023-04-11T06:45:03.092Z,24.99
2023-04-11T06:46:03.114Z,24.94
2023-04-11T06:47:03.311Z,24.90
2023-04-11T06:48:03.187Z,24.88
2023-04-11T06:49:03.069Z,24.85
2023-04-11T06:50:03.065Z,24.82
2023-04-11T06:51:03.076Z,24.79
2023-04-11T06:52:03.064Z,24.77
2023-04-11T06:53:03.042Z,24.74
2023-04-11T06:54:03.052Z,24.72
2023-04-11T06:55:03.029Z,24.69
2023-04-11T06:56:03.119Z,24.67
2023-04-11T06:57:03.031Z,24.66
2023-04-11T06:58:03.018Z,24.64
2023-04-11T06:59:03.081Z,24.64
2023-04-11T07:00:03.044Z,24.63
2023-04-11T07:01:03.131Z,24.63
2023-04-11T07:02:03.041Z,24.63
2023-04-11T07:03:03.286Z,24.64
2023-04-11T07:04:03.082Z,24.65
2023-04-11T07:05:03.044Z,24.66
2023-04-11T07:06:02.966Z,24.68
2023-04-11T07:07:02.945Z,24.71
2023-04-11T07:08:02.943Z,24.73
2023-04-11T07:09:03.108Z,24.76
2023-04-11T07:10:02.938Z,24.78
2023-04-11T07:11:02.932Z,24.83
2023-04-11T07:12:02.922Z,24.85
2023-04-11T07:13:02.909Z,24.88
2023-04-11T07:14:02.921Z,24.91
2023-04-11T07:15:02.901Z,24.93
2023-04-11T07:16:02.923Z,24.96
2023-04-11T07:17:02.864Z,24.98
2023-04-11T07:18:02.921Z,25.01
2023-04-11T07:19:02.883Z,25.02
2023-04-11T07:20:03.110Z,25.04
2023-04-11T07:21:02.854Z,25.06
2023-04-11T07:22:02.849Z,25.06
2023-04-11T07:23:02.839Z,25.06
2023-04-11T07:24:02.821Z,25.07
2023-04-11T07:25:02.826Z,25.07
2023-04-11T07:26:02.795Z,25.06
2023-04-11T07:27:02.825Z,25.10
2023-04-11T07:28:02.803Z,25.14
2023-04-11T07:29:02.801Z,25.17
2023-04-11T07:30:02.796Z,25.19
2023-04-11T07:31:03.126Z,25.23
2023-04-11T07:32:02.870Z,25.25
2023-04-11T07:33:02.793Z,25.28
2023-04-11T07:34:03.140Z,25.30
2023-04-11T07:35:02.806Z,25.31
2023-04-11T07:36:02.751Z,25.29
2023-04-11T07:37:02.741Z,25.28
2023-04-11T07:38:02.785Z,25.32
2023-04-11T07:39:02.751Z,25.32
2023-04-11T07:40:02.748Z,25.34
2023-04-11T07:41:02.791Z,25.36
2023-04-11T07:42:02.871Z,25.37
2023-04-11T07:43:02.795Z,25.38
2023-04-11T07:44:03.121Z,25.39
2023-04-11T07:45:02.840Z,25.40
2023-04-11T07:46:03.218Z,25.41
2023-04-11T07:47:02.911Z,25.42
2023-04-11T07:48:02.958Z,25.42
2023-04-11T07:49:02.901Z,25.43
2023-04-11T07:50:02.936Z,25.44
2023-04-11T07:51:02.951Z,25.47
2023-04-11T07:52:02.963Z,25.47
2023-04-11T07:53:02.965Z,25.49
2023-04-11T07:54:02.950Z,25.50
2023-04-11T07:55:03.007Z,25.48
2023-04-11T07:56:02.983Z,25.50
2023-04-11T07:57:02.998Z,25.51
2023-04-11T07:58:02.974Z,25.51
2023-04-11T07:59:03.096Z,25.52
2023-04-11T08:00:03.006Z,25.53
2023-04-11T08:01:03.071Z,25.54
2023-04-11T08:02:03.124Z,25.56
2023-04-11T08:03:03.180Z,25.57
2023-04-11T08:04:03.532Z,25.58
2023-04-11T08:05:03.124Z,25.60
2023-04-11T08:06:03.063Z,25.60
2023-04-11T08:07:03.027Z,25.60
2023-04-11T08:08:03.064Z,25.61
2023-04-11T08:09:03.049Z,25.61
2023-04-11T08:10:03.061Z,25.62
2023-04-11T08:11:03.050Z,25.64
2023-04-11T08:12:03.048Z,25.65
2023-04-11T08:13:03.097Z,25.67
2023-04-11T08:14:03.091Z,25.67
2023-04-11T08:15:03.086Z,25.69
2023-04-11T08:16:03.072Z,25.67
2023-04-11T08:17:03.263Z,25.65
2023-04-11T08:18:03.140Z,25.65
2023-04-11T08:19:03.109Z,25.65
2023-04-11T08:20:03.100Z,25.61
2023-04-11T08:21:03.118Z,25.62
2023-04-11T08:22:03.097Z,25.60
2023-04-11T08:23:05.438Z,25.61
2023-04-11T08:24:03.083Z,25.62
2023-04-11T08:25:03.090Z,25.64
2023-04-11T08:26:03.149Z,25.67
2023-04-11T08:27:03.063Z,25.68
2023-04-11T08:28:03.083Z,25.69
2023-04-11T08:29:03.112Z,25.70
2023-04-11T08:30:03.056Z,25.72
2023-04-11T08:31:03.109Z,25.73
2023-04-11T08:32:03.016Z,25.75
2023-04-11T08:33:03.094Z,25.75
2023-04-11T08:34:05.353Z,25.76
2023-04-11T08:35:03.007Z,25.76
2023-04-11T08:36:03.032Z,25.78
2023-04-11T08:37:03.006Z,25.79
2023-04-11T08:38:02.973Z,25.75
2023-04-11T08:39:02.963Z,25.72
2023-04-11T08:40:03.000Z,25.73
2023-04-11T08:41:02.957Z,25.75
2023-04-11T08:42:02.965Z,25.77
2023-04-11T08:43:02.941Z,25.79
2023-04-11T08:44:02.962Z,25.81
2023-04-11T08:45:03.129Z,25.83
2023-04-11T08:46:03.088Z,25.83
2023-04-11T08:47:02.908Z,25.84
2023-04-11T08:48:02.992Z,25.86
2023-04-11T08:49:02.908Z,25.86
2023-04-11T08:50:02.890Z,25.87
2023-04-11T08:51:02.903Z,25.87
2023-04-11T08:52:02.888Z,25.88
2023-04-11T08:53:02.884Z,25.89
2023-04-11T08:54:02.892Z,25.90
2023-04-11T08:55:02.872Z,25.91
2023-04-11T08:56:02.862Z,25.92
2023-04-11T08:57:02.860Z,25.91
2023-04-11T08:58:02.859Z,25.93
2023-04-11T08:59:02.837Z,25.92
2023-04-11T09:00:02.824Z,25.93
2023-04-11T09:01:02.850Z,25.93
2023-04-11T09:02:02.941Z,25.94
2023-04-11T09:03:02.935Z,25.94
2023-04-11T09:04:02.782Z,25.93
2023-04-11T09:05:02.857Z,25.94
2023-04-11T09:06:02.796Z,25.94
2023-04-11T09:07:02.912Z,25.95
2023-04-11T09:08:02.907Z,25.96
2023-04-11T09:09:02.963Z,25.95
2023-04-11T09:10:03.031Z,25.96
2023-04-11T09:11:03.138Z,25.96
2023-04-11T09:12:03.178Z,25.96
2023-04-11T09:13:03.340Z,25.96
2023-04-11T09:14:03.269Z,25.97
2023-04-11T09:15:03.325Z,25.97
2023-04-11T09:16:03.394Z,25.99
2023-04-11T09:17:03.463Z,25.99
2023-04-11T09:18:03.536Z,26.00
2023-04-11T09:19:03.555Z,26.00
2023-04-11T09:20:03.616Z,26.01
2023-04-11T09:21:03.668Z,26.02
2023-04-11T09:22:03.788Z,26.03
2023-04-11T09:23:03.782Z,26.01
2023-04-11T09:24:03.838Z,25.99
2023-04-11T09:25:03.889Z,25.97
2023-04-11T09:26:03.977Z,25.96
2023-04-11T09:27:04.026Z,25.97
2023-04-11T09:28:04.119Z,25.97
2023-04-11T09:29:04.156Z,25.94
2023-04-11T09:30:04.208Z,25.92
2023-04-11T09:31:04.295Z,25.93
2023-04-11T09:32:04.770Z,25.92
2023-04-11T09:33:04.460Z,25.89
2023-04-11T09:34:04.429Z,25.88
2023-04-11T09:35:04.459Z,25.86
2023-04-11T09:36:04.493Z,25.83
2023-04-11T09:37:04.510Z,25.79
2023-04-11T09:38:04.465Z,25.75
2023-04-11T09:39:04.493Z,25.71
2023-04-11T09:40:05.742Z,25.67
2023-04-11T09:41:04.551Z,25.64
2023-04-11T09:42:04.592Z,25.61
2023-04-11T09:43:04.570Z,25.56
2023-04-11T09:44:04.647Z,25.53
2023-04-11T09:45:04.631Z,25.50
2023-04-11T09:46:04.782Z,25.48
2023-04-11T09:47:04.895Z,25.46
2023-04-11T09:48:04.794Z,25.43
2023-04-11T09:49:04.944Z,25.41
2023-04-11T09:50:04.863Z,25.41
2023-04-11T09:51:04.881Z,25.40
2023-04-11T09:52:04.930Z,25.38
2023-04-11T09:53:04.954Z,25.37
2023-04-11T09:54:06.135Z,25.36
2023-04-11T09:55:05.036Z,25.35
2023-04-11T09:56:05.079Z,25.35
2023-04-11T09:57:05.163Z,25.33
2023-04-11T09:58:05.205Z,25.33
2023-04-11T09:59:05.396Z,25.32
2023-04-11T10:00:05.268Z,25.31
2023-04-11T10:01:05.329Z,25.32
2023-04-11T10:02:05.480Z,25.29
2023-04-11T10:03:05.494Z,25.29
2023-04-11T10:04:05.483Z,25.29
2023-04-11T10:05:05.571Z,25.30
2023-04-11T10:06:05.537Z,25.30
2023-04-11T10:07:05.588Z,25.32
2023-04-11T10:08:05.598Z,25.34
2023-04-11T10:09:05.628Z,25.35
2023-04-11T10:10:05.653Z,25.37
2023-04-11T10:11:05.689Z,25.40
2023-04-11T10:12:05.709Z,25.42
2023-04-11T10:13:05.715Z,25.45
2023-04-11T10:14:05.722Z,25.47
2023-04-11T10:15:05.749Z,25.50
2023-04-11T10:16:05.839Z,25.51
2023-04-11T10:17:05.785Z,25.53
2023-04-11T10:18:05.880Z,25.55
2023-04-11T10:19:06.156Z,25.56
2023-04-11T10:20:05.803Z,25.59
2023-04-11T10:21:05.785Z,25.60
2023-04-11T10:22:06.688Z,25.61
2023-04-11T10:23:05.758Z,25.60
2023-04-11T10:24:06.197Z,25.59
2023-04-11T10:25:05.781Z,25.58
2023-04-11T10:26:05.807Z,25.54
2023-04-11T10:27:05.805Z,25.54
2023-04-11T10:28:05.801Z,25.55
2023-04-11T10:29:05.823Z,25.59
2023-04-11T10:30:05.861Z,25.62
2023-04-11T10:31:05.880Z,25.66
2023-04-11T10:32:05.832Z,25.69
2023-04-11T10:33:05.921Z,25.72
2023-04-11T10:34:05.879Z,25.75
2023-04-11T10:35:05.920Z,25.77
2023-04-11T10:36:06.107Z,25.79
2023-04-11T10:37:06.018Z,25.76
2023-04-11T10:38:05.929Z,25.73
2023-04-11T10:39:05.950Z,25.73
2023-04-11T10:40:06.007Z,25.74
2023-04-11T10:41:06.028Z,25.76
2023-04-11T10:42:06.076Z,25.77
2023-04-11T10:43:06.117Z,25.79
2023-04-11T10:44:06.169Z,25.81
2023-04-11T10:45:06.190Z,25.82
2023-04-11T10:46:06.261Z,25.84
2023-04-11T10:47:06.330Z,25.84
2023-04-11T10:48:06.396Z,25.84
2023-04-11T10:49:06.381Z,25.86
2023-04-11T10:50:06.467Z,25.87
2023-04-11T10:51:06.539Z,25.88
2023-04-11T10:52:06.581Z,25.89
2023-04-11T10:53:06.685Z,25.90
2023-04-11T10:54:06.685Z,25.92
2023-04-11T10:55:06.751Z,25.92
2023-04-11T10:56:06.816Z,25.92
2023-04-11T10:57:06.869Z,25.92
2023-04-11T10:58:06.981Z,25.90
2023-04-11T10:59:06.997Z,25.88
2023-04-11T11:00:07.053Z,25.89
2023-04-11T11:01:07.155Z,25.91
2023-04-11T11:02:07.343Z,25.91
2023-04-11T11:03:07.390Z,25.93
2023-04-11T11:04:07.925Z,25.92
2023-04-11T11:05:07.470Z,25.93
2023-04-11T11:06:07.433Z,25.94
2023-04-11T11:07:07.476Z,25.95
2023-04-11T11:08:07.696Z,25.96
2023-04-11T11:09:07.688Z,25.96
2023-04-11T11:10:07.624Z,25.96
2023-04-11T11:11:07.683Z,25.92
2023-04-11T11:12:07.763Z,25.92
2023-04-11T11:13:08.212Z,25.92
2023-04-11T11:14:07.848Z,25.91
2023-04-11T11:15:07.943Z,25.88
2023-04-11T11:16:08.110Z,25.86
2023-04-11T11:17:08.085Z,25.85
2023-04-11T11:18:08.294Z,25.85
2023-04-11T11:19:08.142Z,25.84
2023-04-11T11:20:08.168Z,25.82
2023-04-11T11:21:14.155Z,25.81
2023-04-11T11:22:09.170Z,25.79
2023-04-11T11:23:08.155Z,25.77
2023-04-11T11:24:08.124Z,25.75
2023-04-11T11:25:08.139Z,25.74
2023-04-11T11:26:08.129Z,25.73
2023-04-11T11:27:08.140Z,25.71
2023-04-11T11:28:08.119Z,25.70
2023-04-11T11:29:08.111Z,25.69
2023-04-11T11:30:08.066Z,25.68
2023-04-11T11:31:08.082Z,25.67
2023-04-11T11:32:08.222Z,25.65
2023-04-11T11:33:08.074Z,25.64
2023-04-11T11:34:22.817Z,25.63
2023-04-11T11:35:09.057Z,25.60
2023-04-11T11:36:08.029Z,25.58
2023-04-11T11:37:08.028Z,25.56
2023-04-11T11:38:08.024Z,25.54
2023-04-11T11:39:08.018Z,25.52
2023-04-11T11:40:07.992Z,25.50
2023-04-11T11:41:07.984Z,25.49
2023-04-11T11:42:07.992Z,25.47
2023-04-11T11:43:08.006Z,25.44
2023-04-11T11:44:07.976Z,25.43
2023-04-11T11:45:07.947Z,25.41
2023-04-11T11:46:08.741Z,25.40
2023-04-11T11:47:07.935Z,25.39
2023-04-11T11:48:08.210Z,25.37
2023-04-11T11:49:07.937Z,25.36
2023-04-11T11:50:07.910Z,25.33
2023-04-11T11:51:07.954Z,25.25
2023-04-11T11:52:08.050Z,25.16
2023-04-11T11:53:08.112Z,25.08
2023-04-11T11:54:08.137Z,25.01
2023-04-11T11:55:10.440Z,24.90
2023-04-11T11:56:08.110Z,24.85
2023-04-11T11:57:08.110Z,24.82
2023-04-11T11:58:08.096Z,24.78
2023-04-11T11:59:08.084Z,24.78
2023-04-11T12:00:08.089Z,24.78
2023-04-11T12:01:08.077Z,24.77
2023-04-11T12:02:08.184Z,24.80
2023-04-11T12:03:08.130Z,24.82
2023-04-11T12:04:08.185Z,24.84
2023-04-11T12:05:08.213Z,24.86
2023-04-11T12:06:08.059Z,24.88
2023-04-11T12:07:08.029Z,24.90
2023-04-11T12:08:08.037Z,24.92
2023-04-11T12:09:08.021Z,24.94
2023-04-11T12:10:08.023Z,24.97
2023-04-11T12:11:08.008Z,24.99
2023-04-11T12:12:08.038Z,25.01
2023-04-11T12:13:08.003Z,25.03
2023-04-11T12:14:07.972Z,25.04
2023-04-11T12:15:07.966Z,25.06
2023-04-11T12:16:07.970Z,25.07
2023-04-11T12:17:07.969Z,25.08
2023-04-11T12:18:07.978Z,25.10
2023-04-11T12:19:07.960Z,25.11
2023-04-11T12:20:08.058Z,25.13
2023-04-11T12:21:07.934Z,25.14
2023-04-11T12:22:07.930Z,25.15
2023-04-11T12:23:07.922Z,25.16
2023-04-11T12:24:07.918Z,25.17
2023-04-11T12:25:07.925Z,25.17
2023-04-11T12:26:07.887Z,25.18
2023-04-11T12:27:08.934Z,25.17
2023-04-11T12:28:07.905Z,25.16
2023-04-11T12:29:07.862Z,25.16
2023-04-11T12:30:07.873Z,25.16
2023-04-11T12:31:07.902Z,25.16
2023-04-11T12:32:07.881Z,25.16
2023-04-11T12:33:08.038Z,25.16
2023-04-11T12:34:07.956Z,25.16
2023-04-11T12:35:08.007Z,25.16
2023-04-11T12:36:08.063Z,25.17
2023-04-11T12:37:08.113Z,25.17
2023-04-11T12:38:08.132Z,25.17
2023-04-11T12:39:08.239Z,25.17
2023-04-11T12:40:08.236Z,25.17
2023-04-11T12:41:30.303Z,25.16
2023-04-11T12:42:10.024Z,25.16
2023-04-11T12:43:08.270Z,25.16
2023-04-11T12:44:08.238Z,25.17
2023-04-11T12:45:08.282Z,25.17
2023-04-11T12:46:08.263Z,25.17
2023-04-11T12:47:08.288Z,25.16
2023-04-11T12:48:08.429Z,25.16
2023-04-11T12:49:08.378Z,25.16
2023-04-11T12:50:08.443Z,25.15
2023-04-11T12:51:08.462Z,25.15
2023-04-11T12:52:08.516Z,25.15
2023-04-11T12:53:08.561Z,25.15